createdAt,value
2018-04-15T00:01:03.336Z,9.73
2018-04-15T00:03:30.763Z,9.73
2018-04-15T00:05:58.261Z,9.66
2018-04-15T00:08:25.771Z,9.79
2018-04-15T00:10:53.261Z,9.87
2018-04-15T00:13:20.668Z,9.90
2018-04-15T00:15:48.129Z,9.92
2018-04-15T00:18:15.634Z,9.87
2018-04-15T00:20:43.057Z,9.88
2018-04-15T00:23:10.560Z,9.88
2018-04-15T00:25:39.492Z,9.76
2018-04-15T00:28:06.949Z,9.76
2018-04-15T00:30:34.461Z,9.72
2018-04-15T00:33:01.946Z,9.79
2018-04-15T00:35:29.419Z,9.77
2018-04-15T00:37:56.885Z,9.71
2018-04-15T00:40:24.405Z,9.69
2018-04-15T00:42:51.904Z,9.62
2018-04-15T00:45:19.407Z,9.61
2018-04-15T00:47:46.968Z,9.57
2018-04-15T00:50:14.440Z,9.43
2018-04-15T00:52:41.889Z,9.43
2018-04-15T00:55:09.401Z,9.51
2018-04-15T00:57:36.933Z,9.37
2018-04-15T01:00:04.462Z,9.27
2018-04-15T01:02:31.924Z,9.19
2018-04-15T01:07:33.334Z,9.34
2018-04-15T01:10:01.610Z,9.23
2018-04-15T01:12:29.580Z,9.18
2018-04-15T01:14:57.039Z,9.10
2018-04-15T01:17:24.513Z,9.07
2018-04-15T01:19:51.983Z,9.03
2018-04-15T01:22:20.363Z,8.97
2018-04-15T01:24:47.997Z,8.99
2018-04-15T01:27:15.509Z,8.94
2018-04-15T01:29:43.079Z,8.85
2018-04-15T01:32:10.594Z,8.82
2018-04-15T01:34:38.079Z,8.77
2018-04-15T01:37:05.656Z,8.70
2018-04-15T01:39:33.155Z,8.66
2018-04-15T01:42:00.605Z,8.66
2018-04-15T01:44:28.030Z,8.66
2018-04-15T01:46:56.328Z,8.60
2018-04-15T01:49:23.812Z,8.59
2018-04-15T01:51:51.319Z,8.68
2018-04-15T01:54:18.795Z,8.61
2018-04-15T01:56:46.287Z,8.50
2018-04-15T01:59:13.748Z,8.36
2018-04-15T02:01:41.246Z,8.35
2018-04-15T02:04:09.561Z,8.34
2018-04-15T02:06:37.073Z,8.51
2018-04-15T02:11:38.483Z,8.53
2018-04-15T02:14:05.960Z,8.60
2018-04-15T02:16:33.529Z,8.59
2018-04-15T02:19:02.171Z,8.65
2018-04-15T02:21:29.617Z,9.02
2018-04-15T02:23:57.068Z,9.15
2018-04-15T02:26:25.353Z,9.00
2018-04-15T02:28:52.882Z,8.85
2018-04-15T02:31:20.309Z,8.72
2018-04-15T02:33:47.824Z,8.70
2018-04-15T02:36:15.281Z,8.82
2018-04-15T02:38:42.754Z,9.07
2018-04-15T02:41:10.955Z,9.28
2018-04-15T02:43:39.219Z,9.33
2018-04-15T02:46:06.697Z,9.05
2018-04-15T02:48:34.222Z,8.86
2018-04-15T02:51:03.404Z,8.79
2018-04-15T02:53:30.839Z,8.73
2018-04-15T02:55:58.313Z,8.67
2018-04-15T02:58:25.796Z,8.63
2018-04-15T03:00:53.306Z,8.54
2018-04-15T03:03:20.826Z,8.50
2018-04-15T03:05:48.253Z,8.44
2018-04-15T03:08:15.721Z,8.37
2018-04-15T03:10:43.215Z,8.38
2018-04-15T03:13:10.716Z,8.36
2018-04-15T03:15:38.260Z,8.34
2018-04-15T03:18:05.704Z,8.31
2018-04-15T03:20:33.184Z,8.27
2018-04-15T03:23:00.685Z,8.14
2018-04-15T03:25:28.159Z,8.11
2018-04-15T03:27:55.622Z,8.02
2018-04-15T03:30:23.118Z,8.06
2018-04-15T03:32:50.625Z,8.06
2018-04-15T03:35:18.146Z,8.03
2018-04-15T03:37:46.447Z,8.01
2018-04-15T03:40:13.924Z,7.95
2018-04-15T03:42:41.360Z,7.93
2018-04-15T03:45:09.178Z,7.87
2018-04-15T03:47:37.505Z,7.77
2018-04-15T03:50:05.009Z,7.71
2018-04-15T03:52:33.231Z,7.80
2018-04-15T03:55:00.691Z,7.78
2018-04-15T03:57:28.127Z,7.67
2018-04-15T03:59:55.636Z,7.62
2018-04-15T04:02:23.079Z,7.78
2018-04-15T04:04:50.581Z,7.83
2018-04-15T04:07:18.079Z,7.85
2018-04-15T04:09:45.561Z,7.82
2018-04-15T04:12:13.065Z,7.85
2018-04-15T04:14:40.556Z,7.80
2018-04-15T04:17:08.021Z,7.85
2018-04-15T04:19:47.249Z,7.95
2018-04-15T04:22:26.384Z,7.98
2018-04-15T04:25:05.469Z,8.05
2018-04-15T04:30:06.699Z,7.98
2018-04-15T04:32:34.219Z,7.96
2018-04-15T04:35:01.747Z,7.93
2018-04-15T04:37:29.153Z,7.87
2018-04-15T04:39:56.687Z,7.85
2018-04-15T04:42:24.205Z,7.83
2018-04-15T04:44:51.658Z,7.81
2018-04-15T04:47:19.148Z,7.71
2018-04-15T04:49:46.853Z,7.72
2018-04-15T04:52:14.425Z,7.70
2018-04-15T04:54:41.896Z,7.88
2018-04-15T04:57:09.321Z,7.92
2018-04-15T04:59:37.705Z,7.92
2018-04-15T05:02:05.163Z,7.95
2018-04-15T05:04:32.752Z,7.94
2018-04-15T05:07:00.249Z,8.00
2018-04-15T05:09:27.719Z,8.00
2018-04-15T05:11:55.133Z,8.12
2018-04-15T05:14:22.649Z,8.02
2018-04-15T05:16:51.800Z,8.08
2018-04-15T05:19:19.225Z,8.08
2018-04-15T05:21:46.648Z,8.17
2018-04-15T05:24:14.119Z,8.38
2018-04-15T05:26:41.618Z,8.70
2018-04-15T05:29:09.069Z,9.09
2018-04-15T05:31:36.517Z,9.34
2018-04-15T05:34:03.977Z,9.66
2018-04-15T05:36:31.498Z,10.00
2018-04-15T05:38:59.013Z,10.23
2018-04-15T05:41:26.444Z,10.48
2018-04-15T05:43:54.762Z,10.50
2018-04-15T05:46:22.181Z,10.72
2018-04-15T05:48:50.272Z,10.75
2018-04-15T05:51:17.777Z,10.64
2018-04-15T05:53:45.261Z,10.72
2018-04-15T05:56:12.772Z,10.86
2018-04-15T05:58:40.229Z,11.08
2018-04-15T06:01:07.732Z,11.38
2018-04-15T06:03:35.169Z,11.40
2018-04-15T06:06:02.685Z,11.66
2018-04-15T06:08:30.173Z,11.54
2018-04-15T06:13:49.917Z,11.77
2018-04-15T06:16:17.373Z,11.97
2018-04-15T06:18:44.850Z,12.18
2018-04-15T06:21:46.612Z,12.39
2018-04-15T06:24:14.067Z,12.46
2018-04-15T06:26:41.471Z,12.48
2018-04-15T06:29:08.896Z,12.54
2018-04-15T06:31:36.356Z,12.68
2018-04-15T06:34:03.828Z,12.91
2018-04-15T06:36:31.287Z,12.90
2018-04-15T06:38:58.737Z,13.01
2018-04-15T06:41:26.185Z,13.01
2018-04-15T06:43:53.722Z,13.25
2018-04-15T06:46:22.026Z,13.36
2018-04-15T06:48:49.465Z,13.37
2018-04-15T06:51:16.984Z,13.62
2018-04-15T06:53:44.439Z,13.61
2018-04-15T07:02:17.846Z,13.77
2018-04-15T07:04:45.328Z,14.05
2018-04-15T07:07:12.781Z,14.08
2018-04-15T07:09:40.374Z,14.05
2018-04-15T07:39:03.722Z,14.74
2018-04-15T07:41:31.240Z,14.69
2018-04-15T07:47:00.887Z,14.75
2018-04-15T08:29:05.522Z,15.87
2018-04-15T08:31:33.036Z,15.92
2018-04-15T08:34:00.706Z,16.13
2018-04-15T08:41:35.694Z,16.25
2018-04-15T08:44:03.192Z,16.33
2018-04-15T08:46:30.763Z,16.36
2018-04-15T08:48:59.090Z,16.33
2018-04-15T08:51:26.533Z,16.15
2018-04-15T08:53:53.993Z,16.49
2018-04-15T08:56:21.492Z,16.54
2018-04-15T08:58:48.965Z,16.60
2018-04-15T09:01:16.477Z,16.73
2018-04-15T09:03:43.956Z,16.65
2018-04-15T09:06:11.465Z,16.56
2018-04-15T09:08:38.909Z,16.51
2018-04-15T09:11:06.429Z,16.66
2018-04-15T09:13:33.892Z,16.52
2018-04-15T09:16:02.040Z,16.60
2018-04-15T09:18:29.558Z,16.60
2018-04-15T09:20:57.077Z,16.92
2018-04-15T09:23:24.635Z,17.06
2018-04-15T09:25:52.235Z,17.08
2018-04-15T09:28:19.905Z,17.36
2018-04-15T09:30:52.991Z,17.38
2018-04-15T09:33:21.313Z,17.41
2018-04-15T09:35:48.819Z,17.48
2018-04-15T09:38:16.497Z,17.30
2018-04-15T09:40:43.989Z,17.37
2018-04-15T09:49:06.710Z,17.47
2018-04-15T09:51:34.193Z,17.74
2018-04-15T09:54:01.619Z,17.70
2018-04-15T09:56:29.148Z,17.17
2018-04-15T09:58:56.637Z,17.54
2018-04-15T10:01:24.091Z,17.62
2018-04-15T10:03:51.551Z,17.26
2018-04-15T10:06:19.189Z,17.70
2018-04-15T10:08:49.518Z,18.10
2018-04-15T10:11:17.001Z,18.29
2018-04-15T10:13:44.423Z,18.61
2018-04-15T10:18:45.734Z,18.42
2018-04-15T10:21:13.253Z,17.86
2018-04-15T11:48:22.868Z,20.28
2018-04-15T11:50:52.017Z,19.98
2018-04-15T11:59:31.301Z,19.94
2018-04-15T12:05:18.025Z,19.94
2018-04-15T12:16:53.043Z,20.54
2018-04-15T12:19:20.473Z,20.45
2018-04-15T12:21:47.929Z,20.39
2018-04-15T12:24:15.312Z,20.42
2018-04-15T12:26:42.993Z,20.30
2018-04-15T12:32:16.423Z,20.81
2018-04-15T12:34:43.827Z,21.07
2018-04-15T12:37:11.229Z,21.13
2018-04-15T12:39:38.617Z,21.20
2018-04-15T12:42:06.000Z,21.40
2018-04-15T12:44:33.381Z,21.35
2018-04-15T12:47:00.807Z,21.33
2018-04-15T12:49:28.202Z,20.87
2018-04-15T12:51:55.613Z,20.98
2018-04-15T12:54:22.988Z,21.06
2018-04-15T12:56:50.385Z,21.03
2018-04-15T12:59:17.795Z,20.46
2018-04-15T13:01:45.185Z,20.67
2018-04-15T13:04:12.577Z,21.16
2018-04-15T13:06:39.966Z,21.23
2018-04-15T13:09:07.376Z,21.14
2018-04-15T13:11:34.753Z,21.13
2018-04-15T13:14:02.205Z,20.96
2018-04-15T13:16:29.591Z,21.00
2018-04-15T13:18:56.981Z,20.88
2018-04-15T13:21:24.372Z,20.97
2018-04-15T13:23:51.772Z,21.36
2018-04-15T13:26:19.159Z,21.57
2018-04-15T13:28:46.683Z,20.97
2018-04-15T13:31:14.010Z,20.70
2018-04-15T13:33:41.405Z,20.23
2018-04-15T13:36:08.788Z,20.23
2018-04-15T13:38:36.222Z,20.19
2018-04-15T13:41:03.605Z,20.28
2018-04-15T13:43:30.984Z,19.94
2018-04-15T13:45:58.361Z,20.39
2018-04-15T13:48:25.752Z,20.32
2018-04-15T13:50:53.144Z,20.45
2018-04-15T13:53:20.640Z,20.13
2018-04-15T13:55:48.028Z,20.31
2018-04-15T13:58:15.429Z,20.42
2018-04-15T14:00:42.812Z,20.74
2018-04-15T14:03:10.221Z,20.85
2018-04-15T14:05:37.683Z,20.83
2018-04-15T14:08:04.992Z,20.67
2018-04-15T14:10:32.390Z,19.83
2018-04-15T14:12:59.781Z,19.90
2018-04-15T14:15:27.182Z,19.71
2018-04-15T14:17:54.560Z,20.19
2018-04-15T14:20:21.963Z,20.49
2018-04-15T14:22:49.337Z,20.77
2018-04-15T14:25:16.823Z,21.14
2018-04-15T14:27:44.132Z,21.38
2018-04-15T14:30:11.521Z,21.51
2018-04-15T14:32:38.904Z,21.53
2018-04-15T14:35:06.304Z,21.65
2018-04-15T14:37:33.677Z,21.64
2018-04-15T14:40:01.079Z,21.40
2018-04-15T14:42:28.698Z,21.09
2018-04-15T14:44:56.080Z,21.24
2018-04-15T14:47:23.484Z,21.15
2018-04-15T14:49:50.865Z,20.66
2018-04-15T14:52:18.251Z,20.89
2018-04-15T14:54:45.654Z,21.05
2018-04-15T14:57:13.028Z,21.46
2018-04-15T14:59:40.433Z,20.99
2018-04-15T15:02:07.820Z,20.64
2018-04-15T15:04:35.203Z,20.65
2018-04-15T15:07:02.609Z,20.18
2018-04-15T15:09:29.989Z,20.27
2018-04-15T15:11:57.381Z,20.27
2018-04-15T15:14:24.764Z,20.62
2018-04-15T15:16:52.158Z,20.50
2018-04-15T15:19:19.656Z,20.46
2018-04-15T15:22:00.298Z,20.80
2018-04-15T15:24:28.857Z,20.90
2018-04-15T15:26:56.285Z,20.81
2018-04-15T15:29:23.686Z,21.00
2018-04-15T15:31:51.813Z,21.03
2018-04-15T15:34:19.300Z,21.15
2018-04-15T15:36:46.703Z,21.27
2018-04-15T15:39:14.107Z,21.45
2018-04-15T15:41:42.819Z,21.14
2018-04-15T15:44:10.238Z,20.88
2018-04-15T15:46:37.663Z,21.13
2018-04-15T15:49:05.069Z,20.92
2018-04-15T15:51:32.513Z,20.45
2018-04-15T16:00:05.331Z,20.28
